Redwater, Texas
Current Conditions -  °F | °C
As of 11:53 PM on Thursday 30 Oct 2014 (Local Time) from KTXK Reporting Station
Clear Clear  
Wind Chill: 54°   Ceiling: Unl
Heat Index: 54°   Visibility: 10mi
Dew Point: 47°   Wind: 5mph
Humidity: 77%   Direction: 250°WSW
Pressure: 30.1"   Gusts: NA
Location:  33.36°N, 94.25°W
Report Text: KTXK 310453Z AUTO 25004KT 10SM CLR 12/08 A3010 RMK AO2 SLP189 T01220083
Loading
Personal Weather Stations






























Interactive Weather Map
Tropical Storm Tracking
New forecast layout! Learn more

10-Day Weather Forecast

Advertisements
Track Severe Weather on mobile